Time;durP1;ratioP1;P1;durP2;ratioP2;P2;SDS_P1;SDS_P2;PMS_P1;PMS_P2;Temp;Humidity;BMP_temperature;BMP_pressure;BME280_temperature;BME280_humidity;BME280_pressure;Samples;Min_cycle;Max_cycle;Signal;HPM_P1;HPM_P2
2023/01/03 00:01:07;;;;;;;74.03;6.43;;;;;;;11.91;100.00;98870.78;5029955;28;20060;-55
2023/01/03 00:03:33;;;;;;;63.80;5.57;;;;;;;11.87;100.00;98864.66;5032867;28;20036;-55
2023/01/03 00:05:58;;;;;;;59.47;5.35;;;;;;;11.72;100.00;98875.88;5031080;28;21063;-55
2023/01/03 00:08:23;;;;;;;59.35;5.57;;;;;;;11.89;100.00;98890.75;5029326;28;20086;-55
2023/01/03 00:10:49;;;;;;;70.82;6.00;;;;;;;11.80;100.00;98883.75;5029402;28;20112;-55
2023/01/03 00:13:14;;;;;;;53.47;5.40;;;;;;;11.76;100.00;98898.47;5028396;28;20025;-55
2023/01/03 00:15:39;;;;;;;55.08;5.53;;;;;;;11.65;100.00;98884.53;5029355;28;20091;-55
2023/01/03 00:18:05;;;;;;;54.67;5.13;;;;;;;11.63;100.00;98888.84;5031756;28;20029;-55
2023/01/03 00:20:32;;;;;;;58.60;5.15;;;;;;;11.72;100.00;98894.09;5028894;28;20060;-55
2023/01/03 00:22:58;;;;;;;61.63;6.00;;;;;;;11.71;100.00;98894.97;5030548;28;20033;-57
2023/01/03 00:25:25;;;;;;;51.97;5.22;;;;;;;11.76;100.00;98893.28;5031620;28;20042;-55
2023/01/03 00:27:50;;;;;;;54.40;5.68;;;;;;;11.85;100.00;98888.09;5032379;28;20025;-55
2023/01/03 00:30:16;;;;;;;46.08;4.70;;;;;;;12.00;100.00;98877.75;5027577;28;20025;-55
2023/01/03 00:32:41;;;;;;;45.20;4.78;;;;;;;12.03;100.00;98860.38;5030817;28;20025;-55
2023/01/03 00:35:07;;;;;;;67.05;5.85;;;;;;;11.94;100.00;98856.03;5029981;28;20029;-55
2023/01/03 00:37:32;;;;;;;35.30;3.78;;;;;;;11.61;100.00;98861.91;5029439;28;20041;-55
2023/01/03 00:39:59;;;;;;;64.15;5.45;;;;;;;11.45;100.00;98851.38;5031042;28;20033;-56
2023/01/03 00:42:25;;;;;;;47.63;5.03;;;;;;;11.43;100.00;98850.50;5030314;28;20037;-55
2023/01/03 00:44:50;;;;;;;53.63;4.90;;;;;;;11.69;100.00;98862.84;5033342;28;20106;-55
2023/01/03 00:47:15;;;;;;;63.35;5.97;;;;;;;11.40;100.00;98864.34;5027984;28;20037;-56
2023/01/03 00:49:41;;;;;;;72.35;6.50;;;;;;;11.37;100.00;98876.50;5030849;28;20799;-55
2023/01/03 00:52:06;;;;;;;65.05;5.53;;;;;;;11.43;100.00;98886.97;5030267;28;20087;-55
2023/01/03 00:54:31;;;;;;;47.55;4.80;;;;;;;11.40;100.00;98890.41;5031556;28;20112;-55
2023/01/03 00:56:57;;;;;;;46.63;4.70;;;;;;;11.27;100.00;98884.25;5031362;28;20029;-54
2023/01/03 00:59:22;;;;;;;63.30;5.93;;;;;;;11.37;100.00;98882.59;5030343;28;20041;-55
2023/01/03 01:01:54;;;;;;;50.15;4.85;;;;;;;11.24;100.00;98889.41;5031544;28;20092;-55
2023/01/03 01:04:24;;;;;;;68.10;5.95;;;;;;;11.28;100.00;98895.53;5032805;28;20828;-55
2023/01/03 01:06:53;;;;;;;54.30;5.07;;;;;;;11.48;100.00;98898.31;5034120;28;20041;-56
2023/01/03 01:09:22;;;;;;;62.00;5.63;;;;;;;11.55;100.00;98899.22;5033743;28;20035;-55
2023/01/03 01:11:47;;;;;;;53.58;5.20;;;;;;;11.49;100.00;98905.25;5010265;28;20033;-55
2023/01/03 01:14:20;;;;;;;53.78;5.00;;;;;;;11.35;100.00;98909.50;5034930;28;20044;-54
2023/01/03 01:16:58;;;;;;;49.92;4.65;;;;;;;11.19;100.00;98909.34;5033309;28;20115;-56
2023/01/03 01:19:27;;;;;;;63.70;5.60;;;;;;;11.37;100.00;98911.25;5033777;28;20028;-56
2023/01/03 01:21:52;;;;;;;42.72;4.50;;;;;;;11.37;100.00;98918.16;5032588;28;20075;-54
2023/01/03 01:24:18;;;;;;;52.00;5.00;;;;;;;11.51;100.00;98924.34;5033323;28;20120;-53
2023/01/03 01:26:45;;;;;;;50.63;5.03;;;;;;;11.56;100.00;98922.69;5033679;28;20700;-56
2023/01/03 01:29:11;;;;;;;58.30;5.45;;;;;;;11.42;100.00;98926.88;5035208;28;20100;-53
2023/01/03 01:31:37;;;;;;;64.55;5.80;;;;;;;11.20;100.00;98927.59;5031185;28;20751;-55
2023/01/03 01:34:03;;;;;;;44.03;4.70;;;;;;;11.22;100.00;98929.31;5033730;28;20588;-54
2023/01/03 01:36:32;;;;;;;50.30;5.07;;;;;;;11.53;100.00;98927.84;5033813;28;20124;-53
2023/01/03 01:39:03;;;;;;;44.17;4.40;;;;;;;11.48;100.00;98933.88;5034067;28;20025;-53
2023/01/03 01:44:51;;;;;;;53.92;5.03;;;;;;;11.07;100.00;98941.34;5031715;28;20071;-53
2023/01/03 01:47:22;;;;;;;52.20;5.10;;;;;;;11.09;100.00;98946.56;5033970;28;20026;-55
2023/01/03 01:49:52;;;;;;;98.63;7.97;;;;;;;11.13;100.00;98953.56;5033520;28;20029;-53
2023/01/03 01:52:19;;;;;;;49.00;4.65;;;;;;;11.18;100.00;98952.72;5032344;28;20037;-53
2023/01/03 01:54:46;;;;;;;53.80;4.93;;;;;;;11.05;100.00;98941.34;5032133;28;20052;-53
2023/01/03 01:57:15;;;;;;;54.63;5.30;;;;;;;11.31;100.00;98947.63;5033000;28;20040;-53
2023/01/03 01:59:41;;;;;;;89.25;7.40;;;;;;;11.40;100.00;98946.84;5034390;28;20024;-53
2023/01/03 02:02:08;;;;;;;70.53;6.22;;;;;;;11.28;100.00;98951.09;5033163;28;20079;-53
2023/01/03 02:04:36;;;;;;;48.90;5.15;;;;;;;11.35;100.00;98953.75;5032376;28;20017;-53
2023/01/03 02:07:02;;;;;;;57.72;5.68;;;;;;;11.23;100.00;98955.38;5035010;28;20068;-53
2023/01/03 02:09:31;;;;;;;52.85;5.30;;;;;;;11.46;100.00;98954.72;5031057;28;20029;-53
2023/01/03 02:15:10;;;;;;;52.90;5.35;;;;;;;11.17;100.00;98952.75;5034760;28;20040;-53
2023/01/03 02:17:54;;;;;;;47.28;5.13;;;;;;;10.99;100.00;98954.25;5032075;28;20620;-53
2023/01/03 02:20:22;;;;;;;75.55;6.78;;;;;;;11.13;100.00;98961.38;5033525;28;20029;-54
2023/01/03 02:23:03;;;;;;;54.47;5.68;;;;;;;11.01;100.00;98949.09;5031930;28;20733;-53
2023/01/03 02:25:40;;;;;;;56.42;5.82;;;;;;;10.96;100.00;98954.25;5032935;28;20037;-56
2023/01/03 02:28:37;;;;;;;48.83;5.15;;;;;;;11.17;100.00;98953.59;5033430;28;20022;-54
2023/01/03 02:31:07;;;;;;;50.42;5.13;;;;;;;11.10;100.00;98954.38;5030961;28;20934;-53
2023/01/03 02:33:47;;;;;;;54.42;5.85;;;;;;;11.15;100.00;98959.66;5032396;28;20026;-52
2023/01/03 02:36:34;;;;;;;50.75;5.50;;;;;;;11.07;100.00;98955.22;5031603;28;20064;-56
2023/01/03 02:39:09;;;;;;;43.17;5.40;;;;;;;11.32;100.00;98939.84;5033255;28;20041;-54
2023/01/03 02:41:43;;;;;;;61.88;6.38;;;;;;;11.36;100.00;98950.28;5029953;28;20656;-56
2023/01/03 02:44:32;;;;;;;51.75;5.47;;;;;;;11.55;100.00;98952.19;5031632;28;20344;-53
2023/01/03 02:47:01;;;;;;;46.20;5.47;;;;;;;11.44;100.00;98946.03;5031289;28;20495;-55
2023/01/03 02:49:31;;;;;;;48.05;5.53;;;;;;;11.32;100.00;98945.06;5031500;28;20112;-53
2023/01/03 02:52:08;;;;;;;51.22;5.57;;;;;;;11.26;100.00;98962.34;5031004;28;20706;-56
2023/01/03 02:54:45;;;;;;;62.72;6.25;;;;;;;10.93;100.00;98969.84;5031600;28;20689;-52
2023/01/03 02:57:15;;;;;;;51.20;5.32;;;;;;;11.10;100.00;98980.41;5034305;28;20583;-53
2023/01/03 02:59:49;;;;;;;86.82;7.72;;;;;;;10.79;100.00;98977.47;5032089;28;20063;-57
2023/01/03 03:02:16;;;;;;;54.95;5.93;;;;;;;11.01;100.00;98975.13;5029728;28;20036;-56
2023/01/03 03:04:45;;;;;;;70.90;6.95;;;;;;;10.63;100.00;98984.22;5030468;28;20031;-54
2023/01/03 03:07:20;;;;;;;50.05;5.72;;;;;;;10.59;100.00;98983.34;5031630;28;20854;-54
2023/01/03 03:15:21;;;;;;;63.30;6.10;;;;;;;10.52;100.00;98981.50;5033299;28;20095;-53
2023/01/03 03:17:49;;;;;;;67.50;6.72;;;;;;;10.52;100.00;98987.59;5030404;28;20052;-53
2023/01/03 03:26:03;;;;;;;68.57;6.35;;;;;;;10.51;100.00;98974.56;5031363;28;20039;-54
2023/01/03 03:28:34;;;;;;;49.08;5.35;;;;;;;10.38;100.00;98983.88;5030272;28;20075;-53
2023/01/03 03:31:32;;;;;;;72.72;7.03;;;;;;;10.21;100.00;98975.84;5029542;28;20049;-53
2023/01/03 03:34:13;;;;;;;58.97;6.13;;;;;;;10.53;100.00;98975.44;5028690;28;20040;-53
2023/01/03 03:36:46;;;;;;;52.85;5.88;;;;;;;10.70;100.00;98980.88;5029632;28;20703;-54
2023/01/03 03:44:59;;;;;;;56.95;5.90;;;;;;;10.78;100.00;98979.22;5028932;28;20569;-55
2023/01/03 03:47:41;;;;;;;56.38;5.90;;;;;;;10.89;100.00;98975.88;5031190;28;20096;-53
2023/01/03 03:50:16;;;;;;;;;;;;;;;10.86;100.00;98975.81;5033641;28;20217;-53
2023/01/03 03:52:46;;;;;;;54.75;5.82;;;;;;;11.20;100.00;98976.19;5030559;28;19985;-54
2023/01/03 03:55:17;;;;;;;53.03;5.82;;;;;;;11.26;100.00;98976.25;5028737;28;20686;-52
2023/01/03 03:57:52;;;;;;;48.83;5.72;;;;;;;11.30;100.00;98982.38;5029900;28;20029;-55
2023/01/03 04:00:23;;;;;;;57.70;6.28;;;;;;;11.31;100.00;98987.59;5029214;28;20078;-53
2023/01/03 04:02:50;;;;;;;52.97;5.70;;;;;;;11.17;100.00;98979.63;5030315;28;20021;-52
2023/01/03 04:05:19;;;;;;;55.45;5.97;;;;;;;11.18;100.00;98988.31;5031416;28;20037;-55
2023/01/03 04:07:45;;;;;;;48.78;5.93;;;;;;;10.99;100.00;98990.72;5031818;28;20032;-55
2023/01/03 04:10:12;;;;;;;54.80;5.85;;;;;;;11.09;100.00;98994.28;5029016;28;20029;-57
2023/01/03 04:12:38;;;;;;;63.67;6.82;;;;;;;10.91;100.00;98995.84;5030105;28;20525;-56
2023/01/03 04:15:05;;;;;;;42.50;5.47;;;;;;;10.80;100.00;98987.91;5029751;28;20108;-55
2023/01/03 04:17:31;;;;;;;53.78;5.90;;;;;;;10.65;100.00;98991.19;5031338;28;20056;-55
2023/01/03 04:19:57;;;;;;;50.70;5.47;;;;;;;10.71;100.00;98995.63;5029801;28;20110;-54
2023/01/03 04:22:22;;;;;;;59.00;5.93;;;;;;;10.83;100.00;98997.47;5030342;28;20068;-54
2023/01/03 04:24:47;;;;;;;70.57;6.57;;;;;;;10.90;100.00;98999.31;5031080;28;20025;-54
2023/01/03 04:27:13;;;;;;;40.47;4.68;;;;;;;10.99;100.00;99001.13;5029487;28;20124;-54
2023/01/03 04:29:38;;;;;;;94.75;8.55;;;;;;;10.83;100.00;99004.44;5029542;28;20108;-52
2023/01/03 04:32:04;;;;;;;55.30;6.05;;;;;;;10.73;100.00;99006.91;5031758;28;20148;-53
2023/01/03 04:34:29;;;;;;;50.58;5.65;;;;;;;10.57;100.00;98999.78;5030181;28;20486;-54
2023/01/03 04:36:55;;;;;;;90.03;7.95;;;;;;;10.59;100.00;99000.66;5029366;28;20045;-53
2023/01/03 04:39:20;;;;;;;42.10;5.40;;;;;;;10.55;100.00;99003.22;5029203;28;20632;-55
2023/01/03 04:41:45;;;;;;;59.72;6.55;;;;;;;10.40;100.00;99009.03;5027491;28;20033;-58
2023/01/03 04:44:11;;;;;;;59.28;5.88;;;;;;;10.39;100.00;99003.81;5029720;28;20433;-56
2023/01/03 04:46:39;;;;;;;49.15;5.80;;;;;;;10.46;100.00;99013.50;5030560;28;20042;-55
2023/01/03 04:49:07;;;;;;;71.70;7.10;;;;;;;10.75;100.00;99009.53;5026599;28;20032;-54
2023/01/03 04:51:33;;;;;;;43.42;5.50;;;;;;;10.92;100.00;99008.00;5028315;28;20033;-54
2023/01/03 04:53:59;;;;;;;64.93;6.25;;;;;;;10.91;100.00;99005.41;5029538;28;20663;-54
2023/01/03 04:56:26;;;;;;;49.72;5.82;;;;;;;10.93;100.00;99014.97;5028960;28;20047;-55
2023/01/03 04:58:52;;;;;;;54.83;6.00;;;;;;;10.90;100.00;99008.84;5029795;28;20024;-57
2023/01/03 05:01:18;;;;;;;79.57;7.85;;;;;;;10.78;100.00;99005.25;5026293;28;20037;-55
2023/01/03 05:03:43;;;;;;;61.08;6.60;;;;;;;10.65;100.00;99012.00;5026206;28;20140;-55
2023/01/03 05:06:11;;;;;;;75.25;7.60;;;;;;;10.58;100.00;99020.59;5024349;28;20072;-55
2023/01/03 05:08:37;;;;;;;60.55;6.57;;;;;;;10.42;100.00;99017.75;5028518;28;20036;-54
2023/01/03 05:11:03;;;;;;;55.10;6.25;;;;;;;10.35;100.00;99015.06;5027260;28;20037;-52
2023/01/03 05:13:28;;;;;;;56.50;5.90;;;;;;;10.27;100.00;99018.41;5027663;28;20021;-52
2023/01/03 05:15:54;;;;;;;54.35;6.15;;;;;;;10.20;100.00;99015.72;5029696;28;20116;-52
2023/01/03 05:18:19;;;;;;;62.60;6.25;;;;;;;10.09;100.00;99018.16;5027426;28;20044;-54
2023/01/03 05:26:18;;;;;;;64.20;6.72;;;;;;;9.64;100.00;99031.28;5030306;28;20067;-52
2023/01/03 05:28:47;;;;;;;53.15;6.28;;;;;;;9.65;100.00;99033.03;5028429;28;20127;-58
2023/01/03 05:31:12;;;;;;;72.60;7.72;;;;;;;9.61;100.00;99039.00;5029268;28;20025;-56
2023/01/03 05:33:38;;;;;;;69.32;7.28;;;;;;;9.61;100.00;99039.91;5028799;28;20028;-54
2023/01/03 05:36:05;;;;;;;55.28;6.78;;;;;;;9.60;100.00;99045.06;5027298;28;20546;-53
2023/01/03 05:38:30;;;;;;;63.45;7.07;;;;;;;9.61;100.00;99042.50;5029191;28;20487;-53
2023/01/03 05:40:56;;;;;;;51.65;5.93;;;;;;;9.59;100.00;99045.91;5028566;28;20052;-52
2023/01/03 05:43:21;;;;;;;56.10;5.38;;;;;;;9.64;100.00;99046.88;5030945;28;20114;-52
2023/01/03 05:45:51;;;;;;;69.15;6.65;;;;;;;9.57;100.00;99050.22;5028365;28;20037;-55
2023/01/03 05:48:18;;;;;;;55.80;6.35;;;;;;;9.50;100.00;99060.50;5030150;28;20040;-53
2023/01/03 05:50:43;;;;;;;69.15;7.50;;;;;;;9.46;100.00;99060.38;5030658;28;20114;-52
2023/01/03 05:53:09;;;;;;;56.72;7.05;;;;;;;9.35;100.00;99057.59;5033218;28;20049;-52
2023/01/03 05:55:36;;;;;;;44.28;5.60;;;;;;;9.28;100.00;99059.19;5030881;28;20603;-55
2023/01/03 05:58:01;;;;;;;55.83;6.60;;;;;;;9.30;100.00;99056.63;5031524;28;20040;-52
2023/01/03 06:00:27;;;;;;;57.95;6.65;;;;;;;9.16;100.00;99057.25;5033995;28;20132;-56
2023/01/03 06:02:53;;;;;;;71.47;7.25;;;;;;;9.13;100.00;99062.38;5032030;28;20735;-56
2023/01/03 06:05:18;;;;;;;50.65;5.75;;;;;;;9.14;100.00;99064.16;5031637;28;20028;-55
2023/01/03 06:07:44;;;;;;;60.40;6.72;;;;;;;9.11;100.00;99070.16;5031176;28;20028;-56
2023/01/03 06:10:09;;;;;;;50.70;6.20;;;;;;;9.10;100.00;99064.94;5028934;28;20036;-55
2023/01/03 06:12:35;;;;;;;59.53;6.20;;;;;;;9.06;100.00;99070.91;5031160;28;20036;-54
2023/01/03 06:15:00;;;;;;;73.07;7.93;;;;;;;8.98;100.00;99065.53;5032131;28;20488;-56
2023/01/03 06:20:10;;;;;;;72.70;7.55;;;;;;;8.52;100.00;99065.41;5031132;28;20040;-55
2023/01/03 06:22:35;;;;;;;61.42;7.00;;;;;;;8.69;100.00;99061.50;5032980;28;20033;-56
2023/01/03 06:25:00;;;;;;;61.13;7.00;;;;;;;8.57;100.00;99075.06;5033873;28;20036;-56
2023/01/03 06:27:26;;;;;;;51.97;6.43;;;;;;;8.44;100.00;99070.44;5031769;28;20979;-53
2023/01/03 06:29:51;;;;;;;81.60;8.50;;;;;;;8.12;100.00;99071.41;5033695;28;20025;-53
2023/01/03 06:32:17;;;;;;;75.82;7.50;;;;;;;8.40;100.00;99074.69;5029832;28;20043;-53
2023/01/03 06:34:42;;;;;;;51.10;5.90;;;;;;;8.39;100.00;99085.00;5032195;28;21653;-54
2023/01/03 06:37:07;;;;;;;59.45;6.05;;;;;;;8.36;100.00;99077.16;5032172;28;20048;-54
2023/01/03 06:39:33;;;;;;;78.72;12.32;;;;;;;8.73;100.00;99084.06;5030716;28;20040;-53
2023/01/03 06:42:38;;;;;;;89.55;13.60;;;;;;;9.07;100.00;99091.69;5031008;28;20037;-54
2023/01/03 06:53:10;;;;;;;88.97;12.68;;;;;;;9.30;100.00;99086.09;5031330;28;20055;-53
2023/01/03 06:53:12;;;;;;;60.88;7.72;;;;;;;8.30;100.00;99090.84;5034867;28;20058;-54
2023/01/03 06:55:39;;;;;;;77.97;9.23;;;;;;;7.09;100.00;99099.81;5030613;28;20025;-55
2023/01/03 06:58:04;;;;;;;61.05;8.07;;;;;;;6.72;100.00;99109.09;5032106;28;20119;-53
2023/01/03 07:00:30;;;;;;;90.03;10.48;;;;;;;6.42;100.00;99109.91;5030723;28;20051;-54
2023/01/03 07:02:56;;;;;;;90.40;11.70;;;;;;;6.26;100.00;99117.16;5030925;28;20029;-53
2023/01/03 07:05:21;;;;;;;69.72;8.32;;;;;;;6.22;100.00;99121.38;5032122;28;20028;-53
2023/01/03 07:07:46;;;;;;;89.47;9.48;;;;;;;6.42;100.00;99126.28;5033866;28;20036;-53
2023/01/03 07:10:12;;;;;;;66.35;8.77;;;;;;;6.48;100.00;99128.19;5029621;28;20624;-54
2023/01/03 07:15:22;;;;;;;65.03;8.30;;;;;;;7.09;100.00;99130.00;5034115;28;20148;-56
2023/01/03 07:17:47;;;;;;;70.97;8.75;;;;;;;7.34;100.00;99131.56;5029540;28;20021;-56
2023/01/03 07:20:13;;;;;;;60.53;7.57;;;;;;;7.59;100.00;99137.44;5029704;28;20045;-56
2023/01/03 07:22:38;;;;;;;74.22;8.20;;;;;;;7.77;100.00;99139.66;5030802;28;20045;-55
2023/01/03 07:25:04;;;;;;;72.13;8.50;;;;;;;7.99;100.00;99136.72;5032413;28;20032;-55
2023/01/03 07:27:29;;;;;;;66.53;7.80;;;;;;;8.12;100.00;99136.19;5032121;28;20052;-54
2023/01/03 07:29:55;;;;;;;72.07;8.20;;;;;;;8.19;100.00;99135.53;5032269;28;20022;-55
2023/01/03 07:32:20;;;;;;;63.45;8.27;;;;;;;8.25;100.00;99139.09;5031615;28;20422;-55
2023/01/03 07:34:45;;;;;;;67.50;8.52;;;;;;;8.03;100.00;99141.16;5029061;28;20081;-56
2023/01/03 07:37:11;;;;;;;65.15;8.30;;;;;;;7.96;100.00;99142.72;5030706;28;20040;-56
2023/01/03 07:39:36;;;;;;;97.20;9.57;;;;;;;8.10;100.00;99149.97;5030228;28;20756;-56
2023/01/03 07:44:45;;;;;;;65.55;7.63;;;;;;;8.39;100.00;99160.19;5030914;28;20457;-55
2023/01/03 07:47:11;;;;;;;80.32;8.90;;;;;;;8.10;100.00;99161.22;5033119;28;20495;-55
2023/01/03 07:49:36;;;;;;;89.60;10.32;;;;;;;7.62;100.00;99153.06;5032451;28;20033;-56
2023/01/03 07:52:01;;;;;;;52.00;7.20;;;;;;;8.25;100.00;99160.72;5030859;28;20037;-57
2023/01/03 07:54:27;;;;;;;70.97;8.27;;;;;;;8.39;100.00;99158.44;5032095;28;20033;-56
2023/01/03 07:56:52;;;;;;;58.25;7.95;;;;;;;8.70;100.00;99154.06;5030895;28;20037;-56
2023/01/03 07:59:17;;;;;;;75.78;8.65;;;;;;;8.92;100.00;99158.84;5030765;28;20064;-57
2023/01/03 08:01:43;;;;;;;48.13;7.13;;;;;;;9.08;100.00;99157.44;5029028;28;20044;-56
2023/01/03 08:04:08;;;;;;;68.38;8.00;;;;;;;9.01;100.00;99161.63;5031545;28;20052;-55
2023/01/03 08:06:33;;;;;;;74.47;8.52;;;;;;;9.05;100.00;99166.03;5031149;28;20037;-56
2023/01/03 08:13:16;;;;;;;61.35;7.57;;;;;;;8.75;100.00;99161.06;5032082;28;20033;-55
2023/01/03 08:14:30;;;;;;;84.10;9.55;;;;;;;8.80;100.00;99167.22;5032773;28;20094;-56
2023/01/03 08:16:55;;;;;;;54.47;7.97;;;;;;;8.87;100.00;99171.69;5029246;28;20049;-56
2023/01/03 08:19:22;;;;;;;66.32;8.65;;;;;;;9.15;100.00;99176.63;5032695;28;20512;-56
2023/01/03 08:21:47;;;;;;;77.45;9.75;;;;;;;9.28;100.00;99176.03;5029942;28;20110;-56
2023/01/03 08:24:13;;;;;;;69.15;8.05;;;;;;;9.37;100.00;99176.25;5032549;28;20025;-55
2023/01/03 08:26:38;;;;;;;78.47;8.95;;;;;;;9.26;100.00;99177.72;5026899;28;20033;-56
2023/01/03 08:29:03;;;;;;;51.75;7.28;;;;;;;9.50;100.00;99182.56;5029811;28;20035;-56
2023/01/03 08:31:32;;;;;;;51.72;7.38;;;;;;;8.52;100.00;99189.88;5029062;28;20032;-56
2023/01/03 08:34:02;;;;;;;63.00;8.25;;;;;;;8.17;100.00;99185.56;5030813;28;20106;-55
2023/01/03 08:36:37;;;;;;;47.22;7.43;;;;;;;8.93;100.00;99192.59;5031263;28;20066;-55
2023/01/03 08:39:06;;;;;;;62.92;8.35;;;;;;;9.20;100.00;99183.66;5032346;28;20025;-56
2023/01/03 08:41:37;;;;;;;56.28;7.50;;;;;;;8.46;100.00;99191.47;5030304;28;20125;-55
2023/01/03 08:44:05;;;;;;;66.90;9.63;;;;;;;8.49;100.00;99187.22;5028156;28;20506;-56
2023/01/03 08:46:32;;;;;;;59.53;10.07;;;;;;;7.75;100.00;99195.69;5032358;28;20081;-55
2023/01/03 08:48:58;;;;;;;72.22;10.35;;;;;;;9.04;100.00;99195.44;5029710;28;20032;-55
2023/01/03 08:51:25;;;;;;;59.65;8.05;;;;;;;9.18;100.00;99195.75;5029521;28;20148;-55
2023/01/03 08:53:51;;;;;;;57.17;8.45;;;;;;;9.79;100.00;99194.38;5029085;28;20100;-55
2023/01/03 08:56:18;;;;;;;61.50;8.73;;;;;;;9.82;100.00;99201.34;5030797;28;20695;-55
2023/01/03 08:58:44;;;;;;;73.05;9.40;;;;;;;9.74;100.00;99199.50;5030777;28;20037;-58
2023/01/03 09:01:10;;;;;;;79.88;9.35;;;;;;;10.02;100.00;99202.59;5029146;28;20045;-56
2023/01/03 09:03:36;;;;;;;60.10;12.50;;;;;;;9.97;100.00;99203.34;5028107;28;20025;-55
2023/01/03 09:06:02;;;;;;;68.03;8.20;;;;;;;9.00;100.00;99209.19;5028540;28;20041;-57
2023/01/03 09:08:32;;;;;;;64.53;8.30;;;;;;;8.55;100.00;99215.91;5027775;28;20059;-57
2023/01/03 09:10:58;;;;;;;55.35;7.78;;;;;;;9.18;100.00;99205.25;5030803;28;20138;-55
2023/01/03 09:13:23;;;;;;;75.05;9.43;;;;;;;9.57;100.00;99217.31;5030396;28;20021;-55
2023/01/03 09:15:49;;;;;;;60.58;8.15;;;;;;;9.56;100.00;99220.78;5029391;28;20048;-55
2023/01/03 09:18:14;;;;;;;75.93;9.90;;;;;;;10.22;100.00;99219.41;5030053;28;20082;-55
2023/01/03 09:20:40;;;;;;;50.90;7.90;;;;;;;10.58;100.00;99226.09;5030792;28;20029;-55
2023/01/03 09:23:05;;;;;;;61.33;8.13;;;;;;;10.90;100.00;99223.16;5033021;28;20091;-57
2023/01/03 09:25:31;;;;;;;77.07;10.25;;;;;;;10.49;100.00;99221.66;5032835;28;20116;-55
2023/01/03 09:27:56;;;;;;;51.30;8.45;;;;;;;10.58;100.00;99222.66;5035254;28;20032;-57
2023/01/03 09:30:22;;;;;;;63.95;9.10;;;;;;;10.85;100.00;99239.56;5032737;28;20097;-55
2023/01/03 09:32:50;;;;;;;63.50;9.00;;;;;;;10.60;100.00;99229.63;5034642;28;20072;-55
2023/01/03 09:35:16;;;;;;;54.85;8.98;;;;;;;10.52;100.00;99232.13;5032650;28;20025;-55
2023/01/03 09:37:42;;;;;;;73.90;9.98;;;;;;;11.07;100.00;99232.94;5033064;28;20106;-55
2023/01/03 09:40:08;;;;;;;65.03;9.18;;;;;;;11.32;100.00;99234.16;5033435;28;20684;-55
2023/01/03 09:45:28;;;;;;;63.47;9.40;;;;;;;10.80;100.00;99236.88;5031705;28;20218;-56
2023/01/03 09:47:54;;;;;;;67.90;9.25;;;;;;;11.38;100.00;99242.91;5033807;28;20755;-59
2023/01/03 09:50:26;;;;;;;55.08;8.65;;;;;;;11.40;100.00;99234.25;5031480;28;20040;-55
2023/01/03 10:04:48;;;;;;;56.53;8.90;;;;;;;10.29;100.00;99240.34;5034443;28;20099;-56
2023/01/03 10:07:26;;;;;;;50.00;8.68;;;;;;;10.73;100.00;99246.31;5033117;28;20055;-56
2023/01/03 10:09:57;;;;;;;97.47;11.93;;;;;;;10.59;100.00;99237.41;5034403;28;20889;-56
2023/01/03 10:12:30;;;;;;;53.92;8.70;;;;;;;11.37;100.00;99226.44;5034187;28;20641;-55
2023/01/03 10:15:04;;;;;;;70.65;9.50;;;;;;;11.60;100.00;99231.03;5034235;28;20028;-56
2023/01/03 10:17:56;;;;;;;43.72;7.80;;;;;;;11.84;100.00;99230.47;5033624;28;20052;-56
2023/01/03 10:20:44;;;;;;;55.33;8.40;;;;;;;11.31;100.00;99218.50;5035213;28;20049;-56
2023/01/03 10:23:10;;;;;;;66.28;9.52;;;;;;;11.55;100.00;99224.91;5033771;28;20075;-55
2023/01/03 10:25:39;;;;;;;54.72;8.70;;;;;;;11.87;100.00;99219.19;5032122;28;20029;-57
2023/01/03 10:28:16;;;;;;;66.28;9.30;;;;;;;11.62;100.00;99221.50;5034283;28;20036;-55
2023/01/03 10:30:49;;;;;;;55.50;8.63;;;;;;;11.38;100.00;99222.06;5031001;28;20041;-56
2023/01/03 10:33:32;;;;;;;82.13;10.18;;;;;;;11.38;100.00;99222.06;5032318;28;20511;-56
2023/01/03 10:35:57;;;;;;;;;;;;;;;11.84;100.00;99220.03;5033647;28;20042;-55
2023/01/03 10:38:24;;;;;;;61.85;9.10;;;;;;;11.87;100.00;99220.94;5034141;28;19920;-57
2023/01/03 10:41:00;;;;;;;48.85;8.10;;;;;;;12.13;100.00;99208.19;5032360;28;20434;-57
2023/01/03 10:43:28;;;;;;;59.80;9.18;;;;;;;11.87;100.00;99215.72;5031987;28;20049;-56
2023/01/03 10:45:56;;;;;;;58.78;9.43;;;;;;;11.84;100.00;99211.34;5029918;28;20040;-55
2023/01/03 10:48:22;;;;;;;70.90;9.50;;;;;;;12.23;100.00;99206.56;5032783;28;20029;-56
2023/01/03 10:50:49;;;;;;;49.78;8.50;;;;;;;11.32;100.00;99202.03;5030885;28;20125;-55
2023/01/03 10:53:19;;;;;;;63.58;8.90;;;;;;;11.49;100.00;99198.75;5032068;28;20021;-57
2023/01/03 10:55:52;;;;;;;61.80;9.23;;;;;;;11.94;100.00;99204.50;5053724;28;20064;-55
2023/01/03 10:58:26;;;;;;;64.50;8.98;;;;;;;12.07;100.00;99198.56;5032233;28;20024;-55
2023/01/03 11:00:54;;;;;;;61.70;9.00;;;;;;;11.65;100.00;99192.03;5028882;28;20040;-56
2023/01/03 11:03:24;;;;;;;57.55;8.82;;;;;;;11.53;100.00;99198.84;5030636;28;20029;-55
2023/01/03 11:05:55;;;;;;;48.58;8.48;;;;;;;11.54;100.00;99200.56;5031372;28;20029;-59
2023/01/03 11:08:33;;;;;;;52.33;7.87;;;;;;;11.91;100.00;99181.88;5033891;28;20071;-55
2023/01/03 11:10:59;;;;;;;48.30;7.70;;;;;;;11.86;100.00;99194.00;5028653;28;20410;-55
2023/01/03 11:13:38;;;;;;;42.08;7.38;;;;;;;11.74;100.00;99189.53;5032542;28;20039;-56
2023/01/03 11:16:14;;;;;;;57.55;8.63;;;;;;;11.71;100.00;99187.75;5030063;28;20068;-56
2023/01/03 11:18:41;;;;;;;65.25;9.07;;;;;;;12.43;100.00;99190.22;5029650;28;20056;-55
2023/01/03 11:21:09;;;;;;;66.93;9.57;;;;;;;12.43;100.00;99185.00;5030825;28;20781;-55
2023/01/03 11:24:02;;;;;;;63.42;8.93;;;;;;;11.71;100.00;99182.53;5033945;28;20446;-55
2023/01/03 11:26:55;;;;;;;54.33;8.48;;;;;;;12.62;100.00;99183.41;5031596;28;20620;-55
2023/01/03 11:29:32;;;;;;;65.28;8.18;;;;;;;12.75;100.00;99176.53;5031497;28;20574;-55
2023/01/03 11:32:35;;;;;;;74.20;8.45;;;;;;;12.84;100.00;99167.91;5030140;28;20041;-56
2023/01/03 11:35:18;;;;;;;68.72;8.55;;;;;;;12.30;100.00;99160.53;5031030;28;20119;-57
2023/01/03 11:37:55;;;;;;;63.67;7.85;;;;;;;11.80;100.00;99173.09;5011771;28;20053;-55
2023/01/03 11:40:58;;;;;;;50.40;6.95;;;;;;;11.26;100.00;99168.09;5011578;28;20087;-55
2023/01/03 11:43:38;;;;;;;52.55;6.32;;;;;;;10.84;100.00;99172.75;5032379;28;20103;-55
2023/01/03 11:46:09;;;;;;;75.32;8.05;;;;;;;11.70;100.00;99170.34;5030967;28;20154;-55
2023/01/03 11:48:47;;;;;;;53.78;6.78;;;;;;;11.16;100.00;99170.59;5032241;28;20035;-56
2023/01/03 11:51:23;;;;;;;93.32;9.35;;;;;;;10.85;100.00;99172.78;5027908;28;20044;-57
2023/01/03 11:54:08;;;;;;;39.63;6.18;;;;;;;11.71;100.00;99168.63;5030499;28;20021;-55
2023/01/03 11:56:37;;;;;;;54.58;6.28;;;;;;;11.47;100.00;99167.47;5031557;28;20532;-58
2023/01/03 11:59:09;;;;;;;47.58;6.03;;;;;;;11.31;100.00;99169.03;5032327;28;20659;-58
2023/01/03 12:01:52;;;;;;;51.58;6.20;;;;;;;11.41;100.00;99172.63;5031428;28;20131;-56
2023/01/03 12:04:26;;;;;;;64.60;7.40;;;;;;;11.08;100.00;99177.41;5029590;28;20116;-55
2023/01/03 12:07:03;;;;;;;49.42;6.15;;;;;;;10.79;100.00;99170.94;5031596;28;20040;-56
2023/01/03 12:10:22;;;;;;;60.80;6.88;;;;;;;11.17;100.00;99172.31;5031423;28;20022;-57
2023/01/03 12:12:59;;;;;;;53.08;6.30;;;;;;;11.42;100.00;99180.47;5022336;28;20045;-55
2023/01/03 12:15:43;;;;;;;71.80;7.82;;;;;;;11.72;100.00;99178.19;5030699;28;20044;-56
2023/01/03 12:18:38;;;;;;;54.67;6.35;;;;;;;11.45;100.00;99175.31;5032331;28;20510;-55
2023/01/03 12:21:25;;;;;;;55.83;6.40;;;;;;;11.04;100.00;99179.13;5030297;28;20128;-56
2023/01/03 12:23:57;;;;;;;51.15;6.45;;;;;;;11.32;100.00;99182.06;5031190;28;20126;-56
2023/01/03 12:26:25;;;;;;;59.08;6.75;;;;;;;11.35;100.00;99175.16;5030115;28;20434;-55
2023/01/03 12:29:19;;;;;;;58.47;6.53;;;;;;;10.73;100.00;99175.19;5031167;28;20027;-58
2023/01/03 12:31:54;;;;;;;67.70;8.40;;;;;;;10.82;100.00;99172.72;5013253;28;20051;-57